createdAt,value
2017-07-27T00:02:26.639Z,13.40
2017-07-27T00:04:55.122Z,13.40
2017-07-27T00:07:22.680Z,13.40
2017-07-27T00:09:50.358Z,13.50
2017-07-27T00:12:17.967Z,13.50
2017-07-27T00:14:45.516Z,13.50
2017-07-27T00:17:13.254Z,13.60
2017-07-27T00:19:40.817Z,13.60
2017-07-27T00:22:08.356Z,13.70
2017-07-27T00:24:35.964Z,13.70
2017-07-27T00:27:03.517Z,13.80
2017-07-27T00:29:31.048Z,13.80
2017-07-27T00:31:58.635Z,13.80
2017-07-27T00:34:26.170Z,13.80
2017-07-27T00:36:53.708Z,13.70
2017-07-27T00:39:21.298Z,13.70
2017-07-27T00:41:48.837Z,13.70
2017-07-27T00:44:16.337Z,13.80
2017-07-27T00:46:44.663Z,13.90
2017-07-27T00:49:12.602Z,13.90
2017-07-27T00:51:40.132Z,13.90
2017-07-27T00:54:07.686Z,13.90
2017-07-27T00:56:35.233Z,14.00
2017-07-27T00:59:02.690Z,14.00
2017-07-27T01:01:30.280Z,14.10
2017-07-27T01:03:58.258Z,14.10
2017-07-27T01:06:25.817Z,14.00
2017-07-27T01:08:54.112Z,14.10
2017-07-27T01:11:21.671Z,14.10
2017-07-27T01:13:49.268Z,14.10
2017-07-27T01:16:17.040Z,14.10
2017-07-27T01:18:44.569Z,14.10
2017-07-27T01:21:12.098Z,14.10
2017-07-27T01:23:39.649Z,14.20
2017-07-27T01:26:07.199Z,14.20
2017-07-27T01:28:34.740Z,14.30
2017-07-27T01:31:02.317Z,14.30
2017-07-27T01:33:29.828Z,14.40
2017-07-27T01:35:57.363Z,14.40
2017-07-27T01:38:24.895Z,14.40
2017-07-27T01:40:52.453Z,14.40
2017-07-27T01:43:20.000Z,14.40
2017-07-27T01:45:48.491Z,14.50
2017-07-27T01:48:16.020Z,14.50
2017-07-27T01:50:43.565Z,14.50
2017-07-27T01:53:11.867Z,14.50
2017-07-27T01:55:39.431Z,14.50
2017-07-27T01:58:06.944Z,14.50
2017-07-27T02:00:34.529Z,14.50
2017-07-27T02:03:02.062Z,14.50
2017-07-27T02:05:29.574Z,14.50
2017-07-27T02:07:57.315Z,14.50
2017-07-27T02:10:24.868Z,14.50
2017-07-27T02:12:52.421Z,14.50
2017-07-27T02:15:20.025Z,14.50
2017-07-27T02:17:47.560Z,14.50
2017-07-27T02:20:15.105Z,14.50
2017-07-27T02:22:42.681Z,14.50
2017-07-27T02:25:10.225Z,14.50
2017-07-27T02:27:37.760Z,14.50
2017-07-27T02:30:05.343Z,14.60
2017-07-27T02:32:32.897Z,14.50
2017-07-27T02:35:00.439Z,14.50
2017-07-27T02:37:27.978Z,14.50
2017-07-27T02:39:55.511Z,14.50
2017-07-27T02:42:23.102Z,14.50
2017-07-27T02:44:50.676Z,14.50
2017-07-27T02:47:18.201Z,14.50
2017-07-27T02:49:45.719Z,14.50
2017-07-27T02:52:13.358Z,14.50
2017-07-27T02:54:41.654Z,14.40
2017-07-27T02:57:09.176Z,14.40
2017-07-27T02:59:36.756Z,14.40
2017-07-27T03:02:04.326Z,14.40
2017-07-27T03:04:31.946Z,14.40
2017-07-27T03:06:59.526Z,14.40
2017-07-27T03:09:27.032Z,14.40
2017-07-27T03:11:54.545Z,14.40
2017-07-27T03:14:22.864Z,14.40
2017-07-27T03:16:50.340Z,14.30
2017-07-27T03:19:17.903Z,14.40
2017-07-27T03:21:45.504Z,14.40
2017-07-27T03:24:13.030Z,14.40
2017-07-27T03:26:40.536Z,14.40
2017-07-27T03:29:08.282Z,14.40
2017-07-27T03:31:35.831Z,14.40
2017-07-27T03:34:03.330Z,14.40
2017-07-27T03:36:30.884Z,14.40
2017-07-27T03:38:58.417Z,14.40
2017-07-27T03:41:25.975Z,14.40
2017-07-27T03:43:53.572Z,14.40
2017-07-27T03:46:21.133Z,14.40
2017-07-27T03:48:48.693Z,14.40
2017-07-27T03:51:16.271Z,14.40
2017-07-27T03:53:43.837Z,14.40
2017-07-27T03:56:11.362Z,14.40
2017-07-27T03:58:38.960Z,14.40
2017-07-27T04:01:06.537Z,14.30
2017-07-27T04:03:34.104Z,14.30
2017-07-27T04:06:01.681Z,14.30
2017-07-27T04:08:29.223Z,14.40
2017-07-27T04:10:56.747Z,14.40
2017-07-27T04:13:24.481Z,14.40
2017-07-27T04:15:51.994Z,14.40
2017-07-27T04:18:19.552Z,14.40
2017-07-27T04:20:47.132Z,14.40
2017-07-27T04:23:14.731Z,14.40
2017-07-27T04:25:42.290Z,14.40
2017-07-27T04:28:10.642Z,14.40
2017-07-27T04:30:38.164Z,14.40
2017-07-27T04:33:05.735Z,14.40
2017-07-27T04:35:33.313Z,14.40
2017-07-27T04:38:00.845Z,14.40
2017-07-27T04:40:28.757Z,14.40
2017-07-27T04:42:56.329Z,14.40
2017-07-27T04:45:24.589Z,14.50
2017-07-27T04:47:52.145Z,14.50
2017-07-27T04:50:19.735Z,14.50
2017-07-27T04:52:47.314Z,14.60
2017-07-27T04:55:14.867Z,14.60
2017-07-27T04:57:54.249Z,14.70
2017-07-27T05:00:21.814Z,14.70
2017-07-27T05:02:49.363Z,14.80
2017-07-27T05:05:17.107Z,14.90
2017-07-27T05:07:44.652Z,15.00
2017-07-27T05:10:12.230Z,15.00
2017-07-27T05:12:39.829Z,15.10
2017-07-27T05:15:07.417Z,15.20
2017-07-27T05:17:34.933Z,15.20
2017-07-27T05:20:02.691Z,15.20
2017-07-27T05:22:30.251Z,15.20
2017-07-27T05:24:57.818Z,15.20
2017-07-27T05:27:25.417Z,15.20
2017-07-27T05:29:52.933Z,15.10
2017-07-27T05:32:20.483Z,15.00
2017-07-27T05:34:48.014Z,15.00
2017-07-27T05:37:15.570Z,15.10
2017-07-27T05:39:43.102Z,15.10
2017-07-27T05:42:10.719Z,15.10
2017-07-27T05:44:38.273Z,15.00
2017-07-27T05:47:05.866Z,15.00
2017-07-27T05:49:33.611Z,15.00
2017-07-27T05:52:01.125Z,15.00
2017-07-27T05:54:28.708Z,15.00
2017-07-27T05:56:56.313Z,15.00
2017-07-27T05:59:23.833Z,15.00
2017-07-27T06:01:51.454Z,15.10
2017-07-27T06:04:19.057Z,15.10
2017-07-27T06:06:46.560Z,15.10
2017-07-27T06:09:14.132Z,15.10
2017-07-27T06:11:41.725Z,15.10
2017-07-27T06:14:09.275Z,15.20
2017-07-27T06:16:36.854Z,15.30
2017-07-27T06:19:04.405Z,15.40
2017-07-27T06:21:31.965Z,15.60
2017-07-27T06:23:59.498Z,15.70
2017-07-27T06:26:27.094Z,16.00
2017-07-27T06:28:54.637Z,16.20
2017-07-27T06:31:22.241Z,16.40
2017-07-27T06:33:49.851Z,16.60
2017-07-27T06:36:17.417Z,16.70
2017-07-27T06:38:45.212Z,16.70
2017-07-27T06:41:13.327Z,16.70
2017-07-27T06:43:41.689Z,16.80
2017-07-27T06:46:09.207Z,16.80
2017-07-27T06:48:36.764Z,16.90
2017-07-27T06:51:04.275Z,17.00
2017-07-27T06:53:32.501Z,17.20
2017-07-27T06:56:00.116Z,17.30
2017-07-27T06:58:27.690Z,17.40
2017-07-27T07:00:55.262Z,17.50
2017-07-27T07:03:22.851Z,17.50
2017-07-27T07:05:50.466Z,17.60
2017-07-27T07:08:18.067Z,17.80
2017-07-27T07:10:45.673Z,18.10
2017-07-27T07:13:13.244Z,18.60
2017-07-27T07:15:40.836Z,19.00
2017-07-27T07:18:08.467Z,19.60
2017-07-27T07:20:36.025Z,20.10
2017-07-27T07:23:04.358Z,20.70
2017-07-27T07:25:31.935Z,20.60
2017-07-27T07:27:59.454Z,20.60
2017-07-27T07:30:27.013Z,20.60
2017-07-27T07:32:54.613Z,20.80
2017-07-27T07:35:22.163Z,20.70
2017-07-27T07:37:49.729Z,20.60
2017-07-27T07:40:17.332Z,20.40
2017-07-27T07:42:44.885Z,20.30
2017-07-27T07:45:12.493Z,20.10
2017-07-27T07:47:40.247Z,19.70
2017-07-27T07:50:07.794Z,19.80
2017-07-27T07:52:35.394Z,19.90
2017-07-27T07:55:02.914Z,20.00
2017-07-27T07:57:30.714Z,20.10
2017-07-27T07:59:58.277Z,20.10
2017-07-27T08:05:19.066Z,21.00
2017-07-27T08:07:46.825Z,21.40
2017-07-27T08:10:23.322Z,21.60
2017-07-27T08:12:51.084Z,21.70
2017-07-27T08:15:18.638Z,21.50
2017-07-27T08:17:46.207Z,21.70
2017-07-27T08:20:13.924Z,22.00
2017-07-27T08:22:41.500Z,22.20
2017-07-27T08:25:09.058Z,22.20
2017-07-27T08:27:36.646Z,21.90
2017-07-27T08:30:04.244Z,21.90
2017-07-27T08:32:31.829Z,22.30
2017-07-27T08:35:07.873Z,22.50
2017-07-27T08:37:35.417Z,22.70
2017-07-27T08:40:03.766Z,22.80
2017-07-27T08:42:31.389Z,22.80
2017-07-27T08:44:58.962Z,22.70
2017-07-27T08:47:28.777Z,22.40
2017-07-27T08:49:57.471Z,22.30
2017-07-27T08:52:25.013Z,22.30
2017-07-27T08:54:52.555Z,22.30
2017-07-27T08:57:20.281Z,22.40
2017-07-27T08:59:47.802Z,22.40
2017-07-27T09:02:15.489Z,22.60
2017-07-27T09:04:43.379Z,22.80
2017-07-27T09:07:11.038Z,22.70
2017-07-27T09:09:38.604Z,22.60
2017-07-27T09:12:06.348Z,22.30
2017-07-27T09:14:33.937Z,22.10
2017-07-27T09:17:01.497Z,21.80
2017-07-27T09:19:29.854Z,22.30
2017-07-27T09:21:57.434Z,22.30
2017-07-27T09:24:25.830Z,22.50
2017-07-27T09:26:53.430Z,22.50
2017-07-27T09:29:20.951Z,22.60
2017-07-27T09:31:48.496Z,22.40
2017-07-27T09:34:17.047Z,22.20
2017-07-27T09:36:44.866Z,22.30
2017-07-27T09:39:12.390Z,22.60
2017-07-27T09:41:40.243Z,23.50
2017-07-27T09:44:07.773Z,24.80
2017-07-27T09:46:35.476Z,25.40
2017-07-27T09:49:03.109Z,26.30
2017-07-27T09:51:30.648Z,27.40
2017-07-27T09:53:58.228Z,28.00
2017-07-27T09:56:26.021Z,28.50
2017-07-27T09:58:53.738Z,29.40
2017-07-27T10:01:22.434Z,29.00
2017-07-27T10:03:50.077Z,28.70
2017-07-27T10:06:18.256Z,28.40
2017-07-27T10:08:46.969Z,27.60
2017-07-27T10:11:14.558Z,27.30
2017-07-27T10:13:42.121Z,27.50
2017-07-27T10:16:09.799Z,28.10
2017-07-27T10:18:37.386Z,28.60
2017-07-27T10:21:05.043Z,28.30
2017-07-27T10:23:32.663Z,28.80
2017-07-27T10:26:00.461Z,29.80
2017-07-27T10:28:28.887Z,31.10
2017-07-27T10:30:56.561Z,31.00
2017-07-27T10:33:24.223Z,30.90
2017-07-27T10:35:51.817Z,31.00
2017-07-27T10:38:20.137Z,30.00
2017-07-27T10:40:47.663Z,30.00
2017-07-27T10:43:16.012Z,30.20
2017-07-27T10:45:44.442Z,30.40
2017-07-27T10:48:12.889Z,30.30
2017-07-27T10:50:40.506Z,30.30
2017-07-27T10:53:08.377Z,29.70
2017-07-27T10:55:36.112Z,28.40
2017-07-27T10:58:04.748Z,27.30
2017-07-27T11:00:32.255Z,27.30
2017-07-27T11:02:59.892Z,27.60
2017-07-27T11:05:30.447Z,27.20
2017-07-27T11:07:58.252Z,26.60
2017-07-27T11:10:25.792Z,26.30
2017-07-27T11:12:53.364Z,26.00
2017-07-27T11:15:21.174Z,26.40
2017-07-27T11:17:48.798Z,26.60
2017-07-27T11:20:16.360Z,27.00
2017-07-27T11:22:43.927Z,27.10
2017-07-27T11:25:11.553Z,26.80
2017-07-27T11:27:39.127Z,26.70
2017-07-27T11:30:06.696Z,26.50
2017-07-27T11:32:34.335Z,27.00
2017-07-27T11:35:02.214Z,27.80
2017-07-27T11:37:29.992Z,28.00
2017-07-27T11:39:57.619Z,27.70
2017-07-27T11:42:25.267Z,27.60
2017-07-27T11:44:53.830Z,27.10
2017-07-27T11:47:22.183Z,26.60
2017-07-27T11:49:50.914Z,26.60
2017-07-27T11:52:18.738Z,26.60
2017-07-27T11:54:46.489Z,26.60
2017-07-27T11:57:14.034Z,26.90
2017-07-27T11:59:41.592Z,26.60
2017-07-27T12:02:09.145Z,26.30
2017-07-27T12:04:36.776Z,26.00
2017-07-27T12:07:04.382Z,25.70
2017-07-27T12:09:32.176Z,25.30
2017-07-27T12:11:59.725Z,24.90
2017-07-27T12:14:27.363Z,24.50
2017-07-27T12:16:55.023Z,24.10
2017-07-27T12:19:22.617Z,23.70
2017-07-27T12:21:50.289Z,23.50
2017-07-27T12:24:18.110Z,23.20
2017-07-27T12:26:45.717Z,22.80
2017-07-27T12:29:13.299Z,22.40
2017-07-27T12:31:41.011Z,22.30
2017-07-27T12:34:08.612Z,22.60
2017-07-27T12:36:36.201Z,23.00
2017-07-27T12:39:04.815Z,23.60
2017-07-27T12:41:32.447Z,24.30
2017-07-27T12:44:00.049Z,25.00
2017-07-27T12:46:27.948Z,25.60
2017-07-27T12:48:55.636Z,25.90
2017-07-27T12:51:30.211Z,25.60
2017-07-27T12:53:57.782Z,25.80
2017-07-27T12:56:25.370Z,25.60
2017-07-27T12:58:52.949Z,25.30
2017-07-27T13:01:20.517Z,25.20
2017-07-27T13:03:48.054Z,25.00
2017-07-27T13:06:15.688Z,24.80
2017-07-27T13:08:46.666Z,24.50
2017-07-27T13:11:14.258Z,24.20
2017-07-27T13:13:41.893Z,23.90
2017-07-27T13:16:09.447Z,23.60
2017-07-27T13:18:37.105Z,23.20
2017-07-27T13:21:05.073Z,22.90
2017-07-27T13:23:32.756Z,22.80
2017-07-27T13:26:00.701Z,22.60
2017-07-27T13:28:28.331Z,22.40
2017-07-27T13:30:55.922Z,22.50
2017-07-27T13:33:23.529Z,22.70
2017-07-27T13:35:51.169Z,22.80
2017-07-27T13:38:18.796Z,22.80
2017-07-27T13:40:46.403Z,23.10
2017-07-27T13:43:15.215Z,23.00
2017-07-27T13:45:42.776Z,23.00
2017-07-27T13:48:10.728Z,22.90
2017-07-27T13:50:39.573Z,22.80
2017-07-27T13:53:08.407Z,22.60
2017-07-27T13:55:41.685Z,22.60
2017-07-27T13:58:11.051Z,22.20
2017-07-27T14:00:39.285Z,22.10
2017-07-27T14:03:10.437Z,21.90
2017-07-27T14:05:38.291Z,21.70
2017-07-27T14:08:05.905Z,21.50
2017-07-27T14:10:33.562Z,21.40
2017-07-27T14:13:01.379Z,21.20
2017-07-27T14:15:29.706Z,21.20
2017-07-27T14:17:57.447Z,21.20
2017-07-27T14:20:25.297Z,21.00
2017-07-27T14:22:52.929Z,21.00
2017-07-27T14:25:20.705Z,21.10
2017-07-27T14:27:48.438Z,21.10
2017-07-27T14:30:16.141Z,21.20
2017-07-27T14:32:43.826Z,21.40
2017-07-27T14:35:11.493Z,21.60
2017-07-27T14:37:39.163Z,21.60
2017-07-27T14:40:07.630Z,21.80
2017-07-27T14:42:35.266Z,21.70
2017-07-27T14:45:03.786Z,21.70
2017-07-27T14:47:31.648Z,21.70
2017-07-27T14:49:59.367Z,21.60
2017-07-27T14:52:26.940Z,21.40
2017-07-27T14:54:55.429Z,21.20
2017-07-27T14:57:23.986Z,21.10
2017-07-27T14:59:51.679Z,20.90
2017-07-27T15:02:19.382Z,20.90
2017-07-27T15:04:47.134Z,21.00
2017-07-27T15:07:14.711Z,21.10
2017-07-27T15:09:42.707Z,21.20
2017-07-27T15:12:10.297Z,21.40
2017-07-27T15:14:37.975Z,21.70
2017-07-27T15:17:05.875Z,22.00
2017-07-27T15:19:33.535Z,22.10
2017-07-27T15:22:01.572Z,22.30
2017-07-27T15:24:29.814Z,22.30
2017-07-27T15:26:57.679Z,22.10
2017-07-27T15:29:25.342Z,21.90
2017-07-27T15:31:53.677Z,21.70
2017-07-27T15:34:21.813Z,21.30
2017-07-27T15:36:49.641Z,21.00
2017-07-27T15:39:17.523Z,20.60
2017-07-27T15:41:45.160Z,20.30
2017-07-27T15:44:12.716Z,20.10
2017-07-27T15:46:40.394Z,19.80
2017-07-27T15:49:08.088Z,19.60
2017-07-27T15:51:35.927Z,19.40
2017-07-27T15:54:03.747Z,19.20
2017-07-27T15:56:35.160Z,19.00
2017-07-27T15:59:02.964Z,18.90
2017-07-27T16:01:30.710Z,18.80
2017-07-27T16:03:58.606Z,18.70
2017-07-27T16:06:26.511Z,18.70
2017-07-27T16:08:54.559Z,18.70
2017-07-27T16:11:22.266Z,18.80
2017-07-27T16:13:49.831Z,18.90
2017-07-27T16:16:17.446Z,19.20
2017-07-27T16:18:45.753Z,19.90
2017-07-27T16:21:13.297Z,19.80
2017-07-27T16:23:41.016Z,20.10
2017-07-27T16:26:08.643Z,20.20
2017-07-27T16:28:36.261Z,20.20
2017-07-27T16:31:04.763Z,20.20
2017-07-27T16:33:32.453Z,20.20
2017-07-27T16:36:00.215Z,20.30
2017-07-27T16:38:28.191Z,20.30
2017-07-27T16:40:55.966Z,20.50
2017-07-27T16:43:23.590Z,20.50
2017-07-27T16:45:51.342Z,20.50
2017-07-27T16:48:19.982Z,20.50
2017-07-27T16:50:47.630Z,20.40
2017-07-27T16:53:15.598Z,20.30
2017-07-27T16:55:43.349Z,20.20
2017-07-27T16:58:10.981Z,20.20
2017-07-27T17:00:38.757Z,20.10
2017-07-27T17:03:06.331Z,20.00
2017-07-27T17:05:33.931Z,19.90
2017-07-27T17:08:01.535Z,19.90
2017-07-27T17:10:29.104Z,19.80
2017-07-27T17:12:56.732Z,19.70
2017-07-27T17:15:24.369Z,19.60
2017-07-27T17:17:51.903Z,19.40
2017-07-27T17:20:19.493Z,19.20
2017-07-27T17:22:47.207Z,19.10
2017-07-27T17:25:14.831Z,18.90
2017-07-27T17:27:42.442Z,18.80
2017-07-27T17:30:10.044Z,18.80
2017-07-27T17:32:38.289Z,18.70
2017-07-27T17:35:05.971Z,18.60
2017-07-27T17:37:34.264Z,18.50
2017-07-27T17:40:01.877Z,18.50
2017-07-27T17:42:30.666Z,18.30
2017-07-27T17:45:00.297Z,18.10
2017-07-27T17:47:27.880Z,18.00
2017-07-27T17:49:55.556Z,17.80
2017-07-27T17:52:23.290Z,17.70
2017-07-27T17:54:50.890Z,17.60
2017-07-27T17:57:18.494Z,17.50
2017-07-27T17:59:46.288Z,17.50
2017-07-27T18:02:13.913Z,17.40
2017-07-27T18:04:41.535Z,17.40
2017-07-27T18:07:09.303Z,17.30
2017-07-27T18:09:37.584Z,17.20
2017-07-27T18:12:05.279Z,17.20
2017-07-27T18:14:32.888Z,17.20
2017-07-27T18:17:00.959Z,17.20
2017-07-27T18:19:28.560Z,17.20
2017-07-27T18:21:56.302Z,17.20
2017-07-27T18:24:23.866Z,17.10
2017-07-27T18:26:51.512Z,17.00
2017-07-27T18:29:23.776Z,17.00
2017-07-27T18:31:53.017Z,17.00
2017-07-27T18:34:20.680Z,17.00
2017-07-27T18:36:50.204Z,16.90
2017-07-27T18:39:17.717Z,16.90
2017-07-27T18:41:45.340Z,16.90
2017-07-27T18:44:15.177Z,16.90
2017-07-27T18:46:42.894Z,16.80
2017-07-27T18:49:10.503Z,16.80
2017-07-27T18:51:48.231Z,16.80
2017-07-27T18:54:15.850Z,16.80
2017-07-27T18:57:12.080Z,16.80
2017-07-27T19:13:26.466Z,16.90
2017-07-27T19:15:54.115Z,16.80
2017-07-27T19:18:22.487Z,16.80
2017-07-27T19:20:50.246Z,16.80
2017-07-27T19:23:17.827Z,16.80
2017-07-27T19:25:45.424Z,16.80
2017-07-27T19:28:13.094Z,16.80
2017-07-27T19:30:40.966Z,16.80
2017-07-27T19:33:08.574Z,16.70
2017-07-27T19:35:37.228Z,16.70
2017-07-27T19:38:04.999Z,16.70
2017-07-27T19:40:32.646Z,16.70
2017-07-27T19:43:00.590Z,16.70
2017-07-27T19:45:28.971Z,16.70
2017-07-27T19:47:57.575Z,16.70
2017-07-27T19:50:25.164Z,16.70
2017-07-27T19:52:52.726Z,16.70
2017-07-27T19:55:21.803Z,16.60
2017-07-27T19:57:49.502Z,16.70
2017-07-27T20:00:17.092Z,16.60
2017-07-27T20:02:44.802Z,16.70
2017-07-27T20:05:12.765Z,16.70
2017-07-27T20:07:40.373Z,16.70
2017-07-27T20:10:07.985Z,16.70
2017-07-27T20:12:35.630Z,16.60
2017-07-27T20:15:03.300Z,16.60
2017-07-27T20:17:31.193Z,16.60
2017-07-27T20:20:00.591Z,16.60
2017-07-27T20:22:28.355Z,16.50
2017-07-27T20:24:55.942Z,16.50
2017-07-27T20:27:23.541Z,16.50
2017-07-27T20:29:51.122Z,16.50
2017-07-27T20:32:18.745Z,16.40
2017-07-27T20:34:46.533Z,16.40
2017-07-27T20:37:14.098Z,16.40
2017-07-27T20:39:41.711Z,16.40
2017-07-27T20:42:09.422Z,16.40
2017-07-27T20:44:37.031Z,16.30
2017-07-27T20:47:05.809Z,16.30
2017-07-27T20:49:33.447Z,16.20
2017-07-27T20:52:01.097Z,16.20
2017-07-27T20:54:29.271Z,16.20
2017-07-27T20:56:57.931Z,16.20
2017-07-27T20:59:26.319Z,16.10
2017-07-27T21:01:53.934Z,16.10
2017-07-27T21:04:22.505Z,16.10
2017-07-27T21:06:51.026Z,16.10
2017-07-27T21:09:18.616Z,16.10
2017-07-27T21:11:46.967Z,16.10
2017-07-27T21:14:14.567Z,16.00
2017-07-27T21:16:42.166Z,16.00
2017-07-27T21:19:09.824Z,16.00
2017-07-27T21:21:37.441Z,16.00
2017-07-27T21:24:05.009Z,16.00
2017-07-27T21:26:32.639Z,16.00
2017-07-27T21:29:00.194Z,16.00
2017-07-27T21:31:27.767Z,15.90
2017-07-27T21:33:55.394Z,15.90
2017-07-27T21:36:23.643Z,15.80
2017-07-27T21:38:51.228Z,15.80
2017-07-27T21:41:18.960Z,15.70
2017-07-27T21:43:46.570Z,15.70
2017-07-27T21:46:14.159Z,15.60
2017-07-27T21:48:41.891Z,15.60
2017-07-27T21:51:09.455Z,15.60
2017-07-27T21:53:36.973Z,15.60
2017-07-27T21:56:04.557Z,15.60
2017-07-27T21:58:32.110Z,15.60
2017-07-27T22:01:00.443Z,15.60
2017-07-27T22:03:28.029Z,15.60
2017-07-27T22:05:55.585Z,15.60
2017-07-27T22:08:23.120Z,15.60
2017-07-27T22:10:50.723Z,15.60
2017-07-27T22:13:18.353Z,15.60
2017-07-27T22:15:45.979Z,15.60
2017-07-27T22:18:13.527Z,15.60
2017-07-27T22:20:41.947Z,15.60
2017-07-27T22:23:09.476Z,15.60
2017-07-27T22:25:37.155Z,15.60
2017-07-27T22:28:04.694Z,15.50
2017-07-27T22:30:33.335Z,15.50
2017-07-27T22:33:01.218Z,15.50
2017-07-27T22:35:28.836Z,15.50
2017-07-27T22:37:56.411Z,15.60
2017-07-27T22:40:23.974Z,15.60
2017-07-27T22:42:51.547Z,15.60
2017-07-27T22:45:19.134Z,15.60
2017-07-27T22:47:46.718Z,15.60
2017-07-27T22:50:14.224Z,15.60
2017-07-27T22:52:41.786Z,15.60
2017-07-27T22:55:09.521Z,15.60
2017-07-27T22:57:37.040Z,15.70
2017-07-27T23:00:04.612Z,15.70
2017-07-27T23:02:32.422Z,15.60
2017-07-27T23:05:04.123Z,15.60
2017-07-27T23:07:31.700Z,15.60
2017-07-27T23:09:59.329Z,15.60
2017-07-27T23:12:26.889Z,15.60
2017-07-27T23:14:54.480Z,15.60
2017-07-27T23:17:22.031Z,15.60
2017-07-27T23:19:49.592Z,15.60
2017-07-27T23:22:17.862Z,15.50
2017-07-27T23:24:45.457Z,15.50
2017-07-27T23:27:13.034Z,15.50
2017-07-27T23:29:40.612Z,15.40
2017-07-27T23:32:08.206Z,15.40
2017-07-27T23:34:35.795Z,15.40
2017-07-27T23:37:03.375Z,15.40
2017-07-27T23:39:30.995Z,15.30
2017-07-27T23:41:58.548Z,15.30
2017-07-27T23:44:26.142Z,15.40
2017-07-27T23:46:54.668Z,15.30
2017-07-27T23:49:22.255Z,15.30
2017-07-27T23:51:49.867Z,15.30
2017-07-27T23:54:17.566Z,15.30
2017-07-27T23:56:45.208Z,15.30
2017-07-27T23:59:12.817Z,15.30
